sensor_id;sensor_type;location;lat;lon;timestamp;temperature;humidity
5392;DHT22;2719;53.624;9.786;2023-05-10T00:01:43;16.70;85.20
5392;DHT22;2719;53.624;9.786;2023-05-10T00:04:10;16.70;85.20
5392;DHT22;2719;53.624;9.786;2023-05-10T00:06:37;16.70;85.00
5392;DHT22;2719;53.624;9.786;2023-05-10T00:09:03;16.70;85.20
5392;DHT22;2719;53.624;9.786;2023-05-10T00:11:30;16.70;85.70
5392;DHT22;2719;53.624;9.786;2023-05-10T00:13:58;16.60;85.50
5392;DHT22;2719;53.624;9.786;2023-05-10T00:16:25;16.50;86.30
5392;DHT22;2719;53.624;9.786;2023-05-10T00:18:51;16.50;86.60
5392;DHT22;2719;53.624;9.786;2023-05-10T00:21:18;16.50;86.70
5392;DHT22;2719;53.624;9.786;2023-05-10T00:23:45;16.50;87.30
5392;DHT22;2719;53.624;9.786;2023-05-10T00:26:11;16.50;87.50
5392;DHT22;2719;53.624;9.786;2023-05-10T00:28:38;16.40;87.60
5392;DHT22;2719;53.624;9.786;2023-05-10T00:31:06;16.40;88.10
5392;DHT22;2719;53.624;9.786;2023-05-10T00:33:33;16.40;88.30
5392;DHT22;2719;53.624;9.786;2023-05-10T00:35:59;16.40;88.60
5392;DHT22;2719;53.624;9.786;2023-05-10T00:38:26;16.30;88.30
5392;DHT22;2719;53.624;9.786;2023-05-10T00:40:53;16.20;89.60
5392;DHT22;2719;53.624;9.786;2023-05-10T00:43:20;16.30;90.10
5392;DHT22;2719;53.624;9.786;2023-05-10T00:45:46;16.10;89.70
5392;DHT22;2719;53.624;9.786;2023-05-10T00:48:14;16.10;90.50
5392;DHT22;2719;53.624;9.786;2023-05-10T00:50:41;16.10;90.10
5392;DHT22;2719;53.624;9.786;2023-05-10T00:53:08;16.20;90.30
5392;DHT22;2719;53.624;9.786;2023-05-10T00:55:36;16.20;90.30
5392;DHT22;2719;53.624;9.786;2023-05-10T00:58:02;16.10;90.50
5392;DHT22;2719;53.624;9.786;2023-05-10T01:00:29;16.00;90.50
5392;DHT22;2719;53.624;9.786;2023-05-10T01:02:56;16.00;90.60
5392;DHT22;2719;53.624;9.786;2023-05-10T01:05:24;16.00;90.90
5392;DHT22;2719;53.624;9.786;2023-05-10T01:07:52;16.00;90.90
5392;DHT22;2719;53.624;9.786;2023-05-10T01:10:19;15.90;90.90
5392;DHT22;2719;53.624;9.786;2023-05-10T01:12:46;15.90;91.20
5392;DHT22;2719;53.624;9.786;2023-05-10T01:15:14;15.90;91.50
5392;DHT22;2719;53.624;9.786;2023-05-10T01:17:44;15.90;91.30
5392;DHT22;2719;53.624;9.786;2023-05-10T01:20:12;15.90;91.40
5392;DHT22;2719;53.624;9.786;2023-05-10T01:23:20;15.90;91.70
5392;DHT22;2719;53.624;9.786;2023-05-10T01:26:07;15.80;91.50
5392;DHT22;2719;53.624;9.786;2023-05-10T01:28:58;15.80;91.70
5392;DHT22;2719;53.624;9.786;2023-05-10T01:31:38;15.70;91.90
5392;DHT22;2719;53.624;9.786;2023-05-10T01:34:09;15.70;92.00
5392;DHT22;2719;53.624;9.786;2023-05-10T01:36:45;15.80;92.30
5392;DHT22;2719;53.624;9.786;2023-05-10T01:39:17;15.70;92.10
5392;DHT22;2719;53.624;9.786;2023-05-10T01:41:52;15.60;92.60
5392;DHT22;2719;53.624;9.786;2023-05-10T01:44:27;15.50;92.60
5392;DHT22;2719;53.624;9.786;2023-05-10T01:47:01;15.40;92.90
5392;DHT22;2719;53.624;9.786;2023-05-10T01:49:36;15.50;92.90
5392;DHT22;2719;53.624;9.786;2023-05-10T01:52:09;15.50;92.90
5392;DHT22;2719;53.624;9.786;2023-05-10T01:54:38;15.50;93.50
5392;DHT22;2719;53.624;9.786;2023-05-10T01:57:08;15.50;93.20
5392;DHT22;2719;53.624;9.786;2023-05-10T01:59:36;15.40;93.30
5392;DHT22;2719;53.624;9.786;2023-05-10T02:02:07;15.40;93.30
5392;DHT22;2719;53.624;9.786;2023-05-10T02:04:39;15.40;93.70
5392;DHT22;2719;53.624;9.786;2023-05-10T02:07:07;15.40;93.60
5392;DHT22;2719;53.624;9.786;2023-05-10T02:09:35;15.30;93.50
5392;DHT22;2719;53.624;9.786;2023-05-10T02:12:04;15.30;93.70
5392;DHT22;2719;53.624;9.786;2023-05-10T02:14:34;15.30;94.20
5392;DHT22;2719;53.624;9.786;2023-05-10T02:17:02;15.20;93.80
5392;DHT22;2719;53.624;9.786;2023-05-10T02:19:30;15.30;94.00
5392;DHT22;2719;53.624;9.786;2023-05-10T02:22:00;15.30;94.00
5392;DHT22;2719;53.624;9.786;2023-05-10T02:24:28;15.40;94.10
5392;DHT22;2719;53.624;9.786;2023-05-10T02:26:56;15.30;94.00
5392;DHT22;2719;53.624;9.786;2023-05-10T02:29:23;15.20;94.30
5392;DHT22;2719;53.624;9.786;2023-05-10T02:31:52;15.30;94.30
5392;DHT22;2719;53.624;9.786;2023-05-10T02:34:21;15.30;94.40
5392;DHT22;2719;53.624;9.786;2023-05-10T02:36:49;15.20;94.40
5392;DHT22;2719;53.624;9.786;2023-05-10T02:39:19;15.10;94.70
5392;DHT22;2719;53.624;9.786;2023-05-10T02:41:48;15.10;95.00
5392;DHT22;2719;53.624;9.786;2023-05-10T02:44:17;15.20;95.00
5392;DHT22;2719;53.624;9.786;2023-05-10T02:46:45;15.10;94.80
5392;DHT22;2719;53.624;9.786;2023-05-10T02:49:12;15.00;95.10
5392;DHT22;2719;53.624;9.786;2023-05-10T02:51:43;15.10;95.40
5392;DHT22;2719;53.624;9.786;2023-05-10T02:54:13;15.00;95.20
5392;DHT22;2719;53.624;9.786;2023-05-10T02:56:47;15.10;95.20
5392;DHT22;2719;53.624;9.786;2023-05-10T02:59:17;15.10;95.30
5392;DHT22;2719;53.624;9.786;2023-05-10T03:01:43;15.10;95.30
5392;DHT22;2719;53.624;9.786;2023-05-10T03:04:10;15.10;95.90
5392;DHT22;2719;53.624;9.786;2023-05-10T03:06:37;15.00;95.80
5392;DHT22;2719;53.624;9.786;2023-05-10T03:09:04;15.00;95.50
5392;DHT22;2719;53.624;9.786;2023-05-10T03:11:45;15.00;95.60
5392;DHT22;2719;53.624;9.786;2023-05-10T03:14:24;14.70;95.70
5392;DHT22;2719;53.624;9.786;2023-05-10T03:17:00;14.70;95.90
5392;DHT22;2719;53.624;9.786;2023-05-10T03:19:32;14.80;96.00
5392;DHT22;2719;53.624;9.786;2023-05-10T03:22:04;14.80;96.10
5392;DHT22;2719;53.624;9.786;2023-05-10T03:24:34;14.80;96.10
5392;DHT22;2719;53.624;9.786;2023-05-10T03:27:03;14.70;96.10
5392;DHT22;2719;53.624;9.786;2023-05-10T03:29:31;14.70;96.40
5392;DHT22;2719;53.624;9.786;2023-05-10T03:31:59;14.60;96.40
5392;DHT22;2719;53.624;9.786;2023-05-10T03:34:26;14.60;96.50
5392;DHT22;2719;53.624;9.786;2023-05-10T03:36:53;14.60;97.00
5392;DHT22;2719;53.624;9.786;2023-05-10T03:39:20;14.60;96.60
5392;DHT22;2719;53.624;9.786;2023-05-10T03:41:47;14.70;96.80
5392;DHT22;2719;53.624;9.786;2023-05-10T03:44:15;14.70;96.60
5392;DHT22;2719;53.624;9.786;2023-05-10T03:46:41;14.70;96.80
5392;DHT22;2719;53.624;9.786;2023-05-10T03:49:08;14.70;96.70
5392;DHT22;2719;53.624;9.786;2023-05-10T03:51:35;14.50;96.90
5392;DHT22;2719;53.624;9.786;2023-05-10T03:54:01;14.60;96.80
5392;DHT22;2719;53.624;9.786;2023-05-10T03:56:28;14.60;97.10
5392;DHT22;2719;53.624;9.786;2023-05-10T03:58:55;14.60;96.90
5392;DHT22;2719;53.624;9.786;2023-05-10T04:01:23;14.60;97.00
5392;DHT22;2719;53.624;9.786;2023-05-10T04:03:50;14.50;96.90
5392;DHT22;2719;53.624;9.786;2023-05-10T04:06:16;14.60;97.30
5392;DHT22;2719;53.624;9.786;2023-05-10T04:08:43;14.60;97.50
5392;DHT22;2719;53.624;9.786;2023-05-10T04:11:11;14.60;97.30
5392;DHT22;2719;53.624;9.786;2023-05-10T04:13:38;14.60;97.10
5392;DHT22;2719;53.624;9.786;2023-05-10T04:16:05;14.50;97.30
5392;DHT22;2719;53.624;9.786;2023-05-10T04:18:33;14.60;97.40
5392;DHT22;2719;53.624;9.786;2023-05-10T04:21:00;14.60;97.30
5392;DHT22;2719;53.624;9.786;2023-05-10T04:23:26;14.40;97.30
5392;DHT22;2719;53.624;9.786;2023-05-10T04:25:59;14.40;97.90
5392;DHT22;2719;53.624;9.786;2023-05-10T04:28:25;14.50;97.80
5392;DHT22;2719;53.624;9.786;2023-05-10T04:30:52;14.50;97.60
5392;DHT22;2719;53.624;9.786;2023-05-10T04:33:19;14.50;98.00
5392;DHT22;2719;53.624;9.786;2023-05-10T04:35:47;14.50;98.00
5392;DHT22;2719;53.624;9.786;2023-05-10T04:38:13;14.60;97.70
5392;DHT22;2719;53.624;9.786;2023-05-10T04:40:40;14.60;97.80
5392;DHT22;2719;53.624;9.786;2023-05-10T04:43:07;14.60;97.90
5392;DHT22;2719;53.624;9.786;2023-05-10T04:45:33;14.60;98.00
5392;DHT22;2719;53.624;9.786;2023-05-10T04:48:00;14.60;98.10
5392;DHT22;2719;53.624;9.786;2023-05-10T04:50:27;14.50;98.10
5392;DHT22;2719;53.624;9.786;2023-05-10T04:52:55;14.50;98.40
5392;DHT22;2719;53.624;9.786;2023-05-10T04:55:21;14.50;98.30
5392;DHT22;2719;53.624;9.786;2023-05-10T04:57:48;14.50;98.40
5392;DHT22;2719;53.624;9.786;2023-05-10T05:00:15;14.60;98.50
5392;DHT22;2719;53.624;9.786;2023-05-10T05:02:43;14.60;98.20
5392;DHT22;2719;53.624;9.786;2023-05-10T05:05:10;14.50;98.60
5392;DHT22;2719;53.624;9.786;2023-05-10T05:07:37;14.60;98.90
5392;DHT22;2719;53.624;9.786;2023-05-10T05:10:06;14.60;98.40
5392;DHT22;2719;53.624;9.786;2023-05-10T05:12:33;14.70;98.30
5392;DHT22;2719;53.624;9.786;2023-05-10T05:15:00;14.60;98.60
5392;DHT22;2719;53.624;9.786;2023-05-10T05:17:26;14.60;98.70
5392;DHT22;2719;53.624;9.786;2023-05-10T05:19:53;14.50;98.50
5392;DHT22;2719;53.624;9.786;2023-05-10T05:22:20;14.50;98.30
5392;DHT22;2719;53.624;9.786;2023-05-10T05:24:52;14.70;98.70
5392;DHT22;2719;53.624;9.786;2023-05-10T05:27:20;14.70;98.70
5392;DHT22;2719;53.624;9.786;2023-05-10T05:29:49;14.80;98.60
5392;DHT22;2719;53.624;9.786;2023-05-10T05:32:16;14.80;98.50
5392;DHT22;2719;53.624;9.786;2023-05-10T05:34:44;14.90;98.90
5392;DHT22;2719;53.624;9.786;2023-05-10T05:37:13;15.00;98.40
5392;DHT22;2719;53.624;9.786;2023-05-10T05:39:39;14.90;98.60
5392;DHT22;2719;53.624;9.786;2023-05-10T05:42:06;15.00;98.40
5392;DHT22;2719;53.624;9.786;2023-05-10T05:44:34;15.00;98.20
5392;DHT22;2719;53.624;9.786;2023-05-10T05:47:01;15.00;98.40
5392;DHT22;2719;53.624;9.786;2023-05-10T05:49:28;15.10;98.70
5392;DHT22;2719;53.624;9.786;2023-05-10T05:51:58;15.10;98.10
5392;DHT22;2719;53.624;9.786;2023-05-10T05:54:25;15.30;98.70
5392;DHT22;2719;53.624;9.786;2023-05-10T05:56:53;15.30;98.20
5392;DHT22;2719;53.624;9.786;2023-05-10T05:59:20;15.30;98.40
5392;DHT22;2719;53.624;9.786;2023-05-10T06:01:48;15.40;98.60
5392;DHT22;2719;53.624;9.786;2023-05-10T06:04:15;15.20;98.40
5392;DHT22;2719;53.624;9.786;2023-05-10T06:06:43;15.20;98.50
5392;DHT22;2719;53.624;9.786;2023-05-10T06:09:09;15.30;98.60
5392;DHT22;2719;53.624;9.786;2023-05-10T06:11:37;15.20;98.50
5392;DHT22;2719;53.624;9.786;2023-05-10T06:14:04;15.20;98.40
5392;DHT22;2719;53.624;9.786;2023-05-10T06:16:32;15.20;98.50
5392;DHT22;2719;53.624;9.786;2023-05-10T06:19:00;15.30;98.70
5392;DHT22;2719;53.624;9.786;2023-05-10T06:21:27;15.30;99.30
5392;DHT22;2719;53.624;9.786;2023-05-10T06:23:54;15.40;99.20
5392;DHT22;2719;53.624;9.786;2023-05-10T06:26:20;15.30;99.10
5392;DHT22;2719;53.624;9.786;2023-05-10T06:28:47;15.40;99.30
5392;DHT22;2719;53.624;9.786;2023-05-10T06:31:14;15.30;98.60
5392;DHT22;2719;53.624;9.786;2023-05-10T06:33:41;15.40;98.70
5392;DHT22;2719;53.624;9.786;2023-05-10T06:36:09;15.40;98.80
5392;DHT22;2719;53.624;9.786;2023-05-10T06:38:36;15.60;99.40
5392;DHT22;2719;53.624;9.786;2023-05-10T06:41:03;15.80;99.90
5392;DHT22;2719;53.624;9.786;2023-05-10T06:43:29;16.00;99.70
5392;DHT22;2719;53.624;9.786;2023-05-10T06:45:56;15.90;98.30
5392;DHT22;2719;53.624;9.786;2023-05-10T06:48:23;15.90;98.40
5392;DHT22;2719;53.624;9.786;2023-05-10T06:50:49;15.90;98.10
5392;DHT22;2719;53.624;9.786;2023-05-10T06:53:18;15.70;98.20
5392;DHT22;2719;53.624;9.786;2023-05-10T06:55:44;15.80;98.70
5392;DHT22;2719;53.624;9.786;2023-05-10T06:58:11;15.90;98.90
5392;DHT22;2719;53.624;9.786;2023-05-10T07:00:38;16.00;98.70
5392;DHT22;2719;53.624;9.786;2023-05-10T07:03:06;15.90;98.30
5392;DHT22;2719;53.624;9.786;2023-05-10T07:05:33;16.00;98.80
5392;DHT22;2719;53.624;9.786;2023-05-10T07:07:59;16.00;99.10
5392;DHT22;2719;53.624;9.786;2023-05-10T07:10:27;16.20;98.80
5392;DHT22;2719;53.624;9.786;2023-05-10T07:12:55;16.20;99.10
5392;DHT22;2719;53.624;9.786;2023-05-10T07:15:22;16.20;98.80
5392;DHT22;2719;53.624;9.786;2023-05-10T07:17:48;16.50;99.10
5392;DHT22;2719;53.624;9.786;2023-05-10T07:20:15;16.50;98.50
5392;DHT22;2719;53.624;9.786;2023-05-10T07:22:42;16.40;98.80
5392;DHT22;2719;53.624;9.786;2023-05-10T07:25:09;16.50;98.40
5392;DHT22;2719;53.624;9.786;2023-05-10T07:27:37;16.50;98.20
5392;DHT22;2719;53.624;9.786;2023-05-10T07:30:04;16.60;98.70
5392;DHT22;2719;53.624;9.786;2023-05-10T07:32:31;16.70;99.10
5392;DHT22;2719;53.624;9.786;2023-05-10T07:34:58;16.70;98.30
5392;DHT22;2719;53.624;9.786;2023-05-10T07:37:25;16.80;98.30
5392;DHT22;2719;53.624;9.786;2023-05-10T07:39:52;16.70;98.10
5392;DHT22;2719;53.624;9.786;2023-05-10T07:42:18;16.80;98.90
5392;DHT22;2719;53.624;9.786;2023-05-10T07:44:46;16.80;98.40
5392;DHT22;2719;53.624;9.786;2023-05-10T07:47:13;16.80;98.30
5392;DHT22;2719;53.624;9.786;2023-05-10T07:49:40;16.70;98.20
5392;DHT22;2719;53.624;9.786;2023-05-10T07:52:06;16.70;98.20
5392;DHT22;2719;53.624;9.786;2023-05-10T07:54:33;16.80;99.00
5392;DHT22;2719;53.624;9.786;2023-05-10T07:57:00;16.70;98.10
5392;DHT22;2719;53.624;9.786;2023-05-10T07:59:26;16.70;98.40
5392;DHT22;2719;53.624;9.786;2023-05-10T08:01:54;16.80;99.10
5392;DHT22;2719;53.624;9.786;2023-05-10T08:04:21;16.70;98.80
5392;DHT22;2719;53.624;9.786;2023-05-10T08:06:48;16.70;99.40
5392;DHT22;2719;53.624;9.786;2023-05-10T08:09:15;16.70;98.70
5392;DHT22;2719;53.624;9.786;2023-05-10T08:11:43;16.80;99.90
5392;DHT22;2719;53.624;9.786;2023-05-10T08:14:09;16.80;99.90
5392;DHT22;2719;53.624;9.786;2023-05-10T08:16:36;16.80;99.90
5392;DHT22;2719;53.624;9.786;2023-05-10T08:19:04;16.80;99.90
5392;DHT22;2719;53.624;9.786;2023-05-10T08:21:31;16.80;99.90
5392;DHT22;2719;53.624;9.786;2023-05-10T08:23:58;16.80;99.90
5392;DHT22;2719;53.624;9.786;2023-05-10T08:26:24;16.70;99.90
5392;DHT22;2719;53.624;9.786;2023-05-10T08:28:51;16.60;99.90
5392;DHT22;2719;53.624;9.786;2023-05-10T08:31:18;16.60;99.90
5392;DHT22;2719;53.624;9.786;2023-05-10T08:33:44;16.40;99.90
5392;DHT22;2719;53.624;9.786;2023-05-10T08:36:12;16.40;99.90
5392;DHT22;2719;53.624;9.786;2023-05-10T08:38:45;16.30;99.90
5392;DHT22;2719;53.624;9.786;2023-05-10T08:41:11;16.30;99.90
5392;DHT22;2719;53.624;9.786;2023-05-10T08:43:39;16.30;99.90
5392;DHT22;2719;53.624;9.786;2023-05-10T08:46:07;16.30;99.90
5392;DHT22;2719;53.624;9.786;2023-05-10T08:48:36;16.30;99.90
5392;DHT22;2719;53.624;9.786;2023-05-10T08:51:04;16.30;99.90
5392;DHT22;2719;53.624;9.786;2023-05-10T08:53:35;16.20;99.90
5392;DHT22;2719;53.624;9.786;2023-05-10T08:56:03;16.30;99.90
5392;DHT22;2719;53.624;9.786;2023-05-10T08:58:30;16.20;99.90
5392;DHT22;2719;53.624;9.786;2023-05-10T09:00:58;16.20;99.90
5392;DHT22;2719;53.624;9.786;2023-05-10T09:03:25;16.00;99.90
5392;DHT22;2719;53.624;9.786;2023-05-10T09:05:52;16.00;99.90
5392;DHT22;2719;53.624;9.786;2023-05-10T09:08:21;16.10;99.90
5392;DHT22;2719;53.624;9.786;2023-05-10T09:10:52;16.00;99.90
5392;DHT22;2719;53.624;9.786;2023-05-10T09:13:19;15.90;99.90
5392;DHT22;2719;53.624;9.786;2023-05-10T09:15:47;16.00;99.90
5392;DHT22;2719;53.624;9.786;2023-05-10T09:18:14;16.10;99.90
5392;DHT22;2719;53.624;9.786;2023-05-10T09:20:41;16.00;99.90
5392;DHT22;2719;53.624;9.786;2023-05-10T09:23:08;16.10;99.90
5392;DHT22;2719;53.624;9.786;2023-05-10T09:25:35;16.10;99.90
5392;DHT22;2719;53.624;9.786;2023-05-10T09:28:07;15.90;99.90
5392;DHT22;2719;53.624;9.786;2023-05-10T09:30:35;15.90;99.90
5392;DHT22;2719;53.624;9.786;2023-05-10T09:33:02;15.80;99.90
5392;DHT22;2719;53.624;9.786;2023-05-10T09:35:30;15.70;99.90
5392;DHT22;2719;53.624;9.786;2023-05-10T09:37:59;15.70;99.90
5392;DHT22;2719;53.624;9.786;2023-05-10T09:40:27;15.70;99.90
5392;DHT22;2719;53.624;9.786;2023-05-10T09:42:55;15.60;99.90
5392;DHT22;2719;53.624;9.786;2023-05-10T09:45:25;15.70;99.90
5392;DHT22;2719;53.624;9.786;2023-05-10T09:47:52;15.70;99.90
5392;DHT22;2719;53.624;9.786;2023-05-10T09:50:20;15.60;99.90
5392;DHT22;2719;53.624;9.786;2023-05-10T09:52:49;15.60;99.90
5392;DHT22;2719;53.624;9.786;2023-05-10T09:55:17;15.50;99.90
5392;DHT22;2719;53.624;9.786;2023-05-10T09:57:44;15.50;99.90
5392;DHT22;2719;53.624;9.786;2023-05-10T10:00:18;15.60;99.90
5392;DHT22;2719;53.624;9.786;2023-05-10T10:02:48;15.70;99.90
5392;DHT22;2719;53.624;9.786;2023-05-10T10:05:15;15.70;99.90
5392;DHT22;2719;53.624;9.786;2023-05-10T10:07:41;15.70;99.90
5392;DHT22;2719;53.624;9.786;2023-05-10T10:10:09;15.60;99.90
5392;DHT22;2719;53.624;9.786;2023-05-10T10:12:38;15.80;99.90
5392;DHT22;2719;53.624;9.786;2023-05-10T10:15:07;15.70;99.90
5392;DHT22;2719;53.624;9.786;2023-05-10T10:17:36;15.60;99.90
5392;DHT22;2719;53.624;9.786;2023-05-10T10:20:05;15.70;99.90
5392;DHT22;2719;53.624;9.786;2023-05-10T10:22:32;15.70;99.90
5392;DHT22;2719;53.624;9.786;2023-05-10T10:24:59;15.70;99.90
5392;DHT22;2719;53.624;9.786;2023-05-10T10:27:32;15.70;99.90
5392;DHT22;2719;53.624;9.786;2023-05-10T10:30:06;15.50;99.90
5392;DHT22;2719;53.624;9.786;2023-05-10T10:32:59;15.20;99.90
5392;DHT22;2719;53.624;9.786;2023-05-10T10:35:29;15.30;99.90
5392;DHT22;2719;53.624;9.786;2023-05-10T10:37:57;15.30;99.90
5392;DHT22;2719;53.624;9.786;2023-05-10T10:40:28;15.30;99.90
5392;DHT22;2719;53.624;9.786;2023-05-10T10:42:55;15.30;99.90
5392;DHT22;2719;53.624;9.786;2023-05-10T10:45:23;15.20;99.90
5392;DHT22;2719;53.624;9.786;2023-05-10T10:50:44;15.10;99.90
5392;DHT22;2719;53.624;9.786;2023-05-10T10:53:12;15.10;99.90
5392;DHT22;2719;53.624;9.786;2023-05-10T10:55:45;15.10;99.90
5392;DHT22;2719;53.624;9.786;2023-05-10T10:58:29;15.10;99.90
5392;DHT22;2719;53.624;9.786;2023-05-10T11:01:10;15.00;99.90
5392;DHT22;2719;53.624;9.786;2023-05-10T11:03:37;15.00;99.90
5392;DHT22;2719;53.624;9.786;2023-05-10T11:06:06;14.90;99.90
5392;DHT22;2719;53.624;9.786;2023-05-10T11:08:34;15.00;99.90
5392;DHT22;2719;53.624;9.786;2023-05-10T11:11:07;15.10;99.90
5392;DHT22;2719;53.624;9.786;2023-05-10T11:13:38;15.10;99.90
5392;DHT22;2719;53.624;9.786;2023-05-10T11:16:20;15.10;99.90
5392;DHT22;2719;53.624;9.786;2023-05-10T11:19:02;15.00;99.90
5392;DHT22;2719;53.624;9.786;2023-05-10T11:21:30;15.00;99.90
5392;DHT22;2719;53.624;9.786;2023-05-10T11:23:59;14.80;99.90
5392;DHT22;2719;53.624;9.786;2023-05-10T11:26:30;14.80;99.90
5392;DHT22;2719;53.624;9.786;2023-05-10T11:28:57;14.70;99.90
5392;DHT22;2719;53.624;9.786;2023-05-10T11:31:26;14.80;99.90
5392;DHT22;2719;53.624;9.786;2023-05-10T11:33:54;14.80;99.90
5392;DHT22;2719;53.624;9.786;2023-05-10T11:36:23;14.70;99.90
5392;DHT22;2719;53.624;9.786;2023-05-10T11:38:52;14.80;99.90
5392;DHT22;2719;53.624;9.786;2023-05-10T11:41:20;14.90;99.90
5392;DHT22;2719;53.624;9.786;2023-05-10T11:43:48;14.90;99.90
5392;DHT22;2719;53.624;9.786;2023-05-10T11:46:18;15.00;99.90
5392;DHT22;2719;53.624;9.786;2023-05-10T11:48:47;15.10;99.90
5392;DHT22;2719;53.624;9.786;2023-05-10T11:51:20;15.00;99.90
5392;DHT22;2719;53.624;9.786;2023-05-10T11:53:47;14.90;99.90
5392;DHT22;2719;53.624;9.786;2023-05-10T11:56:15;15.00;99.90
5392;DHT22;2719;53.624;9.786;2023-05-10T11:58:42;15.10;99.90
5392;DHT22;2719;53.624;9.786;2023-05-10T12:01:09;15.20;99.90
5392;DHT22;2719;53.624;9.786;2023-05-10T12:03:36;15.20;99.90
5392;DHT22;2719;53.624;9.786;2023-05-10T12:06:04;15.20;99.90
5392;DHT22;2719;53.624;9.786;2023-05-10T12:08:31;15.20;99.90
5392;DHT22;2719;53.624;9.786;2023-05-10T12:11:06;15.30;99.90
5392;DHT22;2719;53.624;9.786;2023-05-10T12:13:37;15.30;99.90
5392;DHT22;2719;53.624;9.786;2023-05-10T12:16:13;15.40;99.90
5392;DHT22;2719;53.624;9.786;2023-05-10T12:18:40;15.40;99.90
5392;DHT22;2719;53.624;9.786;2023-05-10T12:21:09;15.40;99.90
5392;DHT22;2719;53.624;9.786;2023-05-10T12:23:45;15.40;99.90
5392;DHT22;2719;53.624;9.786;2023-05-10T12:26:12;15.20;99.90
5392;DHT22;2719;53.624;9.786;2023-05-10T12:28:40;15.10;99.90
5392;DHT22;2719;53.624;9.786;2023-05-10T12:31:07;15.30;99.90
5392;DHT22;2719;53.624;9.786;2023-05-10T12:33:37;15.40;99.90
5392;DHT22;2719;53.624;9.786;2023-05-10T12:36:07;15.50;99.90
5392;DHT22;2719;53.624;9.786;2023-05-10T12:38:35;15.60;99.90
5392;DHT22;2719;53.624;9.786;2023-05-10T12:41:05;15.70;99.90
5392;DHT22;2719;53.624;9.786;2023-05-10T12:43:33;15.70;99.90
5392;DHT22;2719;53.624;9.786;2023-05-10T12:46:06;15.70;99.90
5392;DHT22;2719;53.624;9.786;2023-05-10T12:48:34;15.80;99.90
5392;DHT22;2719;53.624;9.786;2023-05-10T12:51:01;15.80;99.90
5392;DHT22;2719;53.624;9.786;2023-05-10T12:53:28;15.80;99.90
5392;DHT22;2719;53.624;9.786;2023-05-10T12:55:54;15.90;99.90
5392;DHT22;2719;53.624;9.786;2023-05-10T12:58:21;16.00;99.90
5392;DHT22;2719;53.624;9.786;2023-05-10T13:00:48;16.00;99.90
5392;DHT22;2719;53.624;9.786;2023-05-10T13:03:16;16.10;99.90
5392;DHT22;2719;53.624;9.786;2023-05-10T13:05:43;16.20;99.90
5392;DHT22;2719;53.624;9.786;2023-05-10T13:08:10;16.10;99.90
5392;DHT22;2719;53.624;9.786;2023-05-10T13:10:37;16.20;99.90
5392;DHT22;2719;53.624;9.786;2023-05-10T13:13:03;16.30;99.90
5392;DHT22;2719;53.624;9.786;2023-05-10T13:15:30;16.40;99.90
5392;DHT22;2719;53.624;9.786;2023-05-10T13:17:57;16.40;99.90
5392;DHT22;2719;53.624;9.786;2023-05-10T13:20:25;16.40;99.90
5392;DHT22;2719;53.624;9.786;2023-05-10T13:22:52;16.50;99.90
5392;DHT22;2719;53.624;9.786;2023-05-10T13:25:19;16.60;99.90
5392;DHT22;2719;53.624;9.786;2023-05-10T13:27:46;16.50;99.90
5392;DHT22;2719;53.624;9.786;2023-05-10T13:30:13;16.50;99.90
5392;DHT22;2719;53.624;9.786;2023-05-10T13:32:40;16.50;99.90
5392;DHT22;2719;53.624;9.786;2023-05-10T13:35:08;16.50;99.90
5392;DHT22;2719;53.624;9.786;2023-05-10T13:37:36;16.60;99.90
5392;DHT22;2719;53.624;9.786;2023-05-10T13:40:03;16.50;99.90
5392;DHT22;2719;53.624;9.786;2023-05-10T13:42:30;16.60;99.90
5392;DHT22;2719;53.624;9.786;2023-05-10T13:44:58;16.50;99.90
5392;DHT22;2719;53.624;9.786;2023-05-10T13:47:25;16.30;99.90
5392;DHT22;2719;53.624;9.786;2023-05-10T13:49:52;16.40;99.90
5392;DHT22;2719;53.624;9.786;2023-05-10T13:52:19;16.60;99.90
5392;DHT22;2719;53.624;9.786;2023-05-10T13:54:47;16.70;99.90
5392;DHT22;2719;53.624;9.786;2023-05-10T13:57:13;16.70;99.90
5392;DHT22;2719;53.624;9.786;2023-05-10T13:59:42;16.70;99.90
5392;DHT22;2719;53.624;9.786;2023-05-10T14:02:08;16.70;99.90
5392;DHT22;2719;53.624;9.786;2023-05-10T14:04:35;16.80;99.90
5392;DHT22;2719;53.624;9.786;2023-05-10T14:07:03;16.80;99.90
5392;DHT22;2719;53.624;9.786;2023-05-10T14:09:29;16.70;99.90
5392;DHT22;2719;53.624;9.786;2023-05-10T14:11:58;16.70;99.90
5392;DHT22;2719;53.624;9.786;2023-05-10T14:14:24;16.90;99.90
5392;DHT22;2719;53.624;9.786;2023-05-10T14:16:51;16.90;99.90
5392;DHT22;2719;53.624;9.786;2023-05-10T14:19:18;17.00;99.90
5392;DHT22;2719;53.624;9.786;2023-05-10T14:21:44;17.00;99.90
5392;DHT22;2719;53.624;9.786;2023-05-10T14:24:11;17.10;99.90
5392;DHT22;2719;53.624;9.786;2023-05-10T14:26:38;17.10;99.90
5392;DHT22;2719;53.624;9.786;2023-05-10T14:29:06;17.10;99.90
5392;DHT22;2719;53.624;9.786;2023-05-10T14:31:32;17.20;99.90
5392;DHT22;2719;53.624;9.786;2023-05-10T14:33:59;17.20;99.90
5392;DHT22;2719;53.624;9.786;2023-05-10T14:36:26;17.20;99.90
5392;DHT22;2719;53.624;9.786;2023-05-10T14:38:52;17.20;99.90
5392;DHT22;2719;53.624;9.786;2023-05-10T14:41:19;17.30;99.90
5392;DHT22;2719;53.624;9.786;2023-05-10T14:43:46;17.30;99.90
5392;DHT22;2719;53.624;9.786;2023-05-10T14:46:14;17.20;99.90
5392;DHT22;2719;53.624;9.786;2023-05-10T14:48:41;17.30;99.90
5392;DHT22;2719;53.624;9.786;2023-05-10T14:51:08;17.30;99.90
5392;DHT22;2719;53.624;9.786;2023-05-10T14:53:34;17.20;99.90
5392;DHT22;2719;53.624;9.786;2023-05-10T14:56:01;17.10;99.90
5392;DHT22;2719;53.624;9.786;2023-05-10T14:58:28;17.10;99.90
5392;DHT22;2719;53.624;9.786;2023-05-10T15:00:55;17.10;99.90
5392;DHT22;2719;53.624;9.786;2023-05-10T15:03:23;17.10;99.90
5392;DHT22;2719;53.624;9.786;2023-05-10T15:05:50;17.10;99.90
5392;DHT22;2719;53.624;9.786;2023-05-10T15:08:17;17.00;99.90
5392;DHT22;2719;53.624;9.786;2023-05-10T15:10:44;17.00;99.90
5392;DHT22;2719;53.624;9.786;2023-05-10T15:13:10;17.00;99.90
5392;DHT22;2719;53.624;9.786;2023-05-10T15:15:37;17.10;99.90
5392;DHT22;2719;53.624;9.786;2023-05-10T15:18:04;17.10;99.90
5392;DHT22;2719;53.624;9.786;2023-05-10T15:20:34;17.10;99.90
5392;DHT22;2719;53.624;9.786;2023-05-10T15:23:00;17.10;99.90
5392;DHT22;2719;53.624;9.786;2023-05-10T15:25:27;17.10;99.90
5392;DHT22;2719;53.624;9.786;2023-05-10T15:27:54;17.10;99.90
5392;DHT22;2719;53.624;9.786;2023-05-10T15:30:21;17.20;99.90
5392;DHT22;2719;53.624;9.786;2023-05-10T15:32:47;17.30;99.90
5392;DHT22;2719;53.624;9.786;2023-05-10T15:35:14;17.20;99.90
5392;DHT22;2719;53.624;9.786;2023-05-10T15:37:42;17.30;99.90
5392;DHT22;2719;53.624;9.786;2023-05-10T15:40:09;17.30;99.90
5392;DHT22;2719;53.624;9.786;2023-05-10T15:42:36;17.30;99.90
5392;DHT22;2719;53.624;9.786;2023-05-10T15:45:04;17.20;99.90
5392;DHT22;2719;53.624;9.786;2023-05-10T15:47:31;17.20;99.90
5392;DHT22;2719;53.624;9.786;2023-05-10T15:49:58;17.20;99.90
5392;DHT22;2719;53.624;9.786;2023-05-10T15:52:25;17.10;99.90
5392;DHT22;2719;53.624;9.786;2023-05-10T15:54:54;17.00;99.90
5392;DHT22;2719;53.624;9.786;2023-05-10T15:57:20;16.90;99.90
5392;DHT22;2719;53.624;9.786;2023-05-10T15:59:48;16.70;99.90
5392;DHT22;2719;53.624;9.786;2023-05-10T16:02:15;16.50;99.90
5392;DHT22;2719;53.624;9.786;2023-05-10T16:04:43;16.40;99.90
5392;DHT22;2719;53.624;9.786;2023-05-10T16:07:10;16.40;99.90
5392;DHT22;2719;53.624;9.786;2023-05-10T16:09:37;16.40;99.90
5392;DHT22;2719;53.624;9.786;2023-05-10T16:12:05;16.40;99.90